Ana Sayfa
METAR-TAF:

METAR-TAF

Havaalanları :

Moroni, Komor Adaları

Enlem: 11-32S, Boylam: 043-16E, yükseklik: 29 m

Güncel hava durumu gözlemi

Rapor saat 00:00 UTC de 42 dakika önce yapıldı.
Rüzgar doğu/kuzeydoğudan 4 kt, kuzey ve doğu/güneydoğu arasında değişken
Sıcaklık 23°C
Nem 78%
Basınç 1017 hPa
Görüş mesafesi 10 km veya daha fazla
2000 ft yükseklikte az bulutlu

METAR: FMCH 210000Z 07004KT 360V120 9999 FEW020 23/19 Q1017 NOSIG

Saat: 03:42 (00:42 UTC)

Tahmin

Rapor saat 17:00 UTC de 7 saat ve 42 dakika önce yapıldı.
Ayın 20'si saat 18 UTC'den ayın 21'si saat 24 UTC'ye kadar geçerli Tahmin
Rüzgar doğudan 4 kt
Görüş mesafesi 10 km veya daha fazla
2000 ft yükseklikte az bulutlu
Dönüşüyor
ayın 21'si saat 05 UTC'den ayın 21'si saat 07 UTC'ye kadar
Rüzgar güney/güneybatıdan 10 kt
Dönüşüyor
ayın 21'si saat 16 UTC'den ayın 21'si saat 18 UTC'ye kadar
Rüzgar doğudan 3 kt

TAF: FMCH 201700Z 2018/2124 10004KT 9999 FEW020 BECMG 2105/2107 20010KT BECMG 2116/2118 09003KT

4.000'den fazla havaalanı için hava durumu gözlemleri ve tahminleri (METAR ve TAF raporları).

Kullanılabilir istasyonlar harita üzerinde sarı ve kırmızı noktalarla gösterilir.

İstasyonun adını görmek için fareyi noktanın üzerinde gezdirin.

Sonrasında hava gözlem ve tahminlerini görmek için tıklayın.

Haritayı değiştirmek için: yaklaştırmak için siyah artı işaretli yeşil düğmeye ve uzaklaştırmak için de eksi işaretli düğmeye hızla tıklayın; bitişik haritalar için yeşil okları kullanın.


METAR-TAF: